Historyczne dane pomiarowe

Dodano dane terminowe – wersja testowa.

Dane z okresu 1951-2019

Wersja bazy: 1.34 [2019-03-16, lista zmian], aktualizacja planowana na 2019-04-15

Dane meteo z obszaru Polski uzyskane na podstawie danych udostępnionych przez Instytut Meteorologii i Gospodarki Wodnej – Państwowy Instytut Badawczy.

 

Wybierz Datę:    

       

TemperaturaWilgotnośćWiatrCiśnienieOpadyŚniegCzas trwania zjawisk
 Stacja t tx tn tng RH VA  wxwx mslp ppp RRR   cm mm wxwxwxwxwxwxwx
1983-08-14 12.3 15.3 7.1 5.3 90.5- 4.7 4.7---- 0.9------------
1983-08-13 14.8 21.0 11.3 11.1 89.5- 7.3 6.3---- 11.4------------
1983-08-12 19.0 25.5 10.6 8.8 75.0- 2.0 5.0---- 8.2------------
1983-08-11 19.8 25.4 13.2 11.5 74.3- 1.7 3.7---- 0.0------------
1983-08-10 17.9 23.9 9.8 8.4 78.5- 1.7 3.0---- 0.0------------
1983-08-09 16.0 22.9 10.4 9.2 96.5- 4.7 3.7---- 39.5------------
1983-08-08 16.6 21.4 12.0 10.3 92.8- 5.7 4.3---- 0.3------------
1983-08-07 14.6 17.9 11.8 7.9 93.8- 7.7 2.7---- 7.1------------
1983-08-06 14.1 17.6 10.0 7.1 82.8- 5.3 3.0---- 1.1------------
1983-08-05 12.6 16.2 7.8 6.9 78.8- 4.7 5.0---- 0.0------------
1983-08-04 10.4 14.4 9.0 8.3 96.3- 8.0 6.7---- 0.3------------
1983-08-03 17.3 21.7 14.1 13.3 87.0- 5.7 5.7---- 1.4------------
1983-08-02 19.9 25.2 15.8 12.9 78.3- 6.7 3.7---- 4.1------------
1983-08-01 21.0 30.5 10.1 6.4 54.3- 0.3 6.0---- 0.0------------
1983-07-31 17.8 25.4 5.4 3.9 60.0- 0.0 2.7---- 0.0------------
1983-07-30 17.6 23.4 14.6 12.9 76.5- 2.3 6.0---- 0.0------------
1983-07-29 19.9 23.8 12.4 9.3 61.5- 5.3 5.0---- 2.9------------
1983-07-28 22.4 27.6 17.8 11.3 59.5- 3.0 4.3---- 0.0------------
1983-07-27 22.7 31.7 10.0 7.4 51.5- 0.7 2.0---- 0.0------------
1983-07-26 20.9 27.7 10.4 7.2 59.0- 0.3 3.0---- 0.0------------
1983-07-25 14.5 21.3 6.7 6.4 71.3- 2.0 4.0---- 0.0------------
1983-07-24 14.6 21.9 8.1 5.5 83.5- 5.7 4.0---- 0.0------------
1983-07-23 18.0 22.4 11.8 10.9 76.3- 3.3 6.3---- 0.0------------
1983-07-22 12.3 14.3 8.0 6.4 88.0- 7.7 6.0---- 1.2------------
1983-07-21 12.9 17.0 9.0 8.3 65.5- 3.7 7.0---- 0.0------------
1983-07-20 14.9 23.3 11.3 10.9 89.8- 6.3 4.0---- 1.1------------
1983-07-19 23.3 28.9 17.9 14.8 62.5- 0.7 4.3---- 9.1------------
1983-07-18 23.8 31.4 10.3 8.8 65.3- 0.7 1.7---- 0.0------------
1983-07-17 21.0 26.0 14.2 10.4 69.8- 2.3 3.3---- 0.0------------
1983-07-16 20.5 27.4 11.1 9.3 74.5- 2.3 3.3---- 0.0------------
1983-07-15 19.6 24.7 11.8 9.3 65.5- 1.7 3.3---- 0.0------------
1983-07-14 18.2 20.7 14.4 13.3 93.8- 6.0 6.3---- 3.6------------
1983-07-13 19.7 24.7 14.4 10.6 78.3- 5.7 6.0---- 11.4------------
1983-07-12 18.4 25.2 15.3 14.3 83.5- 7.0 5.3---- 5.5------------
1983-07-11 17.7 26.2 13.1 10.6 80.8- 7.3 3.3---- 7.9------------
1983-07-10 21.6 28.5 10.3 7.7 55.8- 1.7 4.3---- 0.0------------
1983-07-09 19.9 27.6 11.0 9.6 60.8- 1.0 4.0---- 0.0------------
1983-07-08 20.7 27.5 8.5 5.7 47.8- 0.0 3.7---- 0.0------------
1983-07-07 21.9 28.0 11.2 8.4 56.8- 0.7 4.3---- 0.0------------
1983-07-06 21.4 29.3 9.5 6.5 60.0- 0.7 2.3---- 0.0------------
1983-07-05 18.2 26.4 10.2 7.5 67.8- 0.0 3.0---- 0.0------------
1983-07-04 20.3 26.8 10.3 8.0 58.3- 0.3 2.7---- 0.0------------
1983-07-03 18.6 23.7 9.4 8.0 61.3- 2.3 3.0---- 0.0------------
1983-07-02 17.2 23.0 13.2 11.7 73.0- 3.3 4.7---- 0.0------------
1983-07-01 20.6 25.2 10.4 9.1 67.0- 3.3 3.0---- 0.0------------
1983-06-30 15.7 21.9 6.0 4.1 73.0- 2.3 0.3---- 0.0------------
1983-06-29 12.1 18.0 5.7 6.5 68.5- 2.7 2.7---- 0.0------------
1983-06-28 15.8 23.0 13.6 13.9 84.0- 7.7 4.7---- 1.0------------
1983-06-27 20.0 25.3 15.0 11.4 75.8- 4.7 3.0---- 13.5------------
1983-06-26 19.8 25.0 14.6 12.6 78.8- 6.0 2.7---- 0.0------------
1983-06-25 20.6 26.5 14.2 9.5 64.3- 2.0 6.0---- 3.5------------
1983-06-24 16.1 25.2 3.2 0.6 65.0- 0.3 2.7---- 0.0------------
1983-06-23 14.1 20.5 4.3 0.9 60.5- 0.0 6.0---- 0.0------------
1983-06-22 15.7 20.7 10.6 8.2 60.3- 0.0 6.3---- 0.0------------
1983-06-21 18.4 24.4 8.1 6.1 68.0- 1.0 4.3---- 0.0------------
1983-06-20 17.5 22.1 14.5 14.3 87.0- 4.0 5.3---- 1.3------------
1983-06-19 13.5 16.5 11.0 10.6 98.5- 8.0 7.0---- 1.2------------
1983-06-18 11.6 13.6 8.3 8.2 92.3- 8.0 5.3---- 13.2------------
1983-06-17 11.5 13.7 8.8 8.3 82.0- 7.3 5.3---- 4.2------------
1983-06-16 11.2 14.8 8.1 8.0 78.8- 7.7 6.7---- 0.0------------
2417.1 ms

 

Źródłem pochodzenia danych jest Instytut Meteorologii i Gospodarki Wodnej – Państwowy Instytut Badawczy. Dane Instytutu Meteorologii i Gospodarki Wodnej – Państwowego Instytutu Badawczego zostały przetworzone.

Dane źródłowe można odnaleźć na stronie https://dane.imgw.pl